Lockhart, Indiana
Current Conditions -  °F | °C
As of 2:55 PM on Friday 19 Dec 2014 (Local Time) from KHNB Reporting Station
Clear Clear  
Wind Chill: 34°   Ceiling: Unl
Heat Index: 34°   Visibility: 10mi
Dew Point: 21°   Wind: 3mph
Humidity: 60%   Direction: 360°N
Pressure: 30.3"   Gusts: NA
Location:  38.277°N, 87.1283°W
Report Text: KHNB 192055Z AUTO 36003KT 10SM CLR 01/M06 A3030 RMK AO1 54000
Loading
Personal Weather Stations






























Interactive Weather Map New forecast layout! Learn more

10-Day Weather Forecast

Advertisements
Track Severe Weather on mobile